createdAt,value
2018-04-29T00:01:22.737Z,6.63
2018-04-29T00:03:51.775Z,7.03
2018-04-29T00:06:21.405Z,7.03
2018-04-29T00:08:50.480Z,8.25
2018-04-29T00:11:20.852Z,8.60
2018-04-29T00:13:49.907Z,8.23
2018-04-29T00:16:19.686Z,9.10
2018-04-29T00:18:48.738Z,9.00
2018-04-29T00:21:17.788Z,8.10
2018-04-29T00:23:47.789Z,8.10
2018-04-29T00:26:17.474Z,9.50
2018-04-29T00:28:48.455Z,9.18
2018-04-29T00:31:17.802Z,8.10
2018-04-29T00:33:46.861Z,8.00
2018-04-29T00:36:16.138Z,9.20
2018-04-29T00:38:45.209Z,9.47
2018-04-29T00:41:14.753Z,9.60
2018-04-29T00:43:43.817Z,9.60
2018-04-29T00:46:14.222Z,9.32
2018-04-29T00:48:43.256Z,10.23
2018-04-29T00:51:13.026Z,9.53
2018-04-29T00:53:44.801Z,9.60
2018-04-29T00:56:13.864Z,9.10
2018-04-29T00:58:44.509Z,9.83
2018-04-29T01:01:13.565Z,8.23
2018-04-29T01:03:45.161Z,8.57
2018-04-29T01:06:14.213Z,7.43
2018-04-29T01:08:44.178Z,7.90
2018-04-29T01:11:13.314Z,9.27
2018-04-29T01:13:43.294Z,8.10
2018-04-29T01:16:16.109Z,7.83
2018-04-29T01:18:45.368Z,7.80
2018-04-29T01:21:19.533Z,8.47
2018-04-29T01:23:49.203Z,8.70
2018-04-29T01:26:18.241Z,8.77
2018-04-29T01:28:47.933Z,8.93
2018-04-29T01:31:16.979Z,8.20
2018-04-29T01:33:46.114Z,9.40
2018-04-29T01:36:15.162Z,8.40
2018-04-29T01:38:45.179Z,9.85
2018-04-29T01:41:14.441Z,10.10
2018-04-29T01:43:44.007Z,8.70
2018-04-29T01:46:15.011Z,9.03
2018-04-29T01:48:44.250Z,8.50
2018-04-29T01:51:13.431Z,9.65
2018-04-29T01:53:42.488Z,10.13
2018-04-29T01:56:11.551Z,9.10
2018-04-29T01:58:40.741Z,9.03
2018-04-29T02:01:09.820Z,8.97
2018-04-29T02:03:38.927Z,9.20
2018-04-29T02:06:08.032Z,9.13
2018-04-29T02:08:37.262Z,10.17
2018-04-29T02:11:06.318Z,10.73
2018-04-29T02:13:35.377Z,9.83
2018-04-29T02:16:04.438Z,9.63
2018-04-29T02:18:37.303Z,10.27
2018-04-29T02:21:06.403Z,9.80
2018-04-29T02:23:35.617Z,9.27
2018-04-29T02:26:06.641Z,8.90
2018-04-29T02:28:35.791Z,9.97
2018-04-29T02:31:05.958Z,8.70
2018-04-29T02:33:37.020Z,9.30
2018-04-29T02:36:07.054Z,9.33
2018-04-29T02:38:38.260Z,8.83
2018-04-29T02:43:43.053Z,9.73
2018-04-29T02:46:13.057Z,9.23
2018-04-29T02:48:42.106Z,9.20
2018-04-29T02:51:12.199Z,8.63
2018-04-29T02:56:18.421Z,9.27
2018-04-29T02:58:47.486Z,10.00
2018-04-29T03:01:16.547Z,9.15
2018-04-29T03:03:46.505Z,8.17
2018-04-29T03:08:51.330Z,9.20
2018-04-29T03:11:21.403Z,9.40
2018-04-29T03:13:50.434Z,8.80
2018-04-29T03:16:19.823Z,7.73
2018-04-29T03:18:49.002Z,8.23
2018-04-29T03:21:19.110Z,9.20
2018-04-29T03:23:48.255Z,8.10
2018-04-29T03:28:56.356Z,9.38
2018-04-29T03:31:29.160Z,9.95
2018-04-29T03:33:58.194Z,8.30
2018-04-29T03:36:27.310Z,9.07
2018-04-29T03:38:56.357Z,7.90
2018-04-29T03:41:25.415Z,8.13
2018-04-29T03:43:54.815Z,8.93
2018-04-29T03:49:00.060Z,10.05
2018-04-29T03:51:30.140Z,8.70
2018-04-29T03:53:59.169Z,9.40
2018-04-29T03:56:32.274Z,8.60
2018-04-29T04:02:06.611Z,10.88
2018-04-29T04:09:47.277Z,10.60
2018-04-29T04:12:16.353Z,9.73
2018-04-29T04:14:45.403Z,9.50
2018-04-29T04:17:14.453Z,9.20
2018-04-29T04:19:43.506Z,7.27
2018-04-29T04:22:13.502Z,9.18
2018-04-29T04:24:42.931Z,7.90
2018-04-29T04:27:11.980Z,7.90
2018-04-29T04:29:41.019Z,8.47
2018-04-29T04:32:11.037Z,8.97
2018-04-29T04:34:40.450Z,8.30
2018-04-29T04:37:09.477Z,8.50
2018-04-29T04:39:38.541Z,9.53
2018-04-29T04:42:08.700Z,8.17
2018-04-29T04:47:13.445Z,11.05
2018-04-29T04:49:42.514Z,9.70
2018-04-29T04:52:12.111Z,10.07
2018-04-29T04:54:41.188Z,9.90
2018-04-29T04:57:11.249Z,11.40
2018-04-29T04:59:40.313Z,10.82
2018-04-29T05:02:09.374Z,9.60
2018-04-29T05:04:38.792Z,8.80
2018-04-29T05:09:43.511Z,9.60
2018-04-29T05:12:12.558Z,10.18
2018-04-29T05:14:42.725Z,8.33
2018-04-29T05:17:12.155Z,8.43
2018-04-29T05:19:42.126Z,7.80
2018-04-29T05:22:12.241Z,7.93
2018-04-29T05:24:42.758Z,8.00
2018-04-29T05:27:11.863Z,8.40
2018-04-29T05:32:16.678Z,9.77
2018-04-29T05:34:45.931Z,8.90
2018-04-29T05:37:14.974Z,9.20
2018-04-29T05:39:44.944Z,7.73
2018-04-29T05:42:15.002Z,7.70
2018-04-29T05:44:44.187Z,8.43
2018-04-29T05:47:13.233Z,7.70
2018-04-29T05:49:42.293Z,8.30
2018-04-29T05:52:11.337Z,8.07
2018-04-29T05:57:29.165Z,9.75
2018-04-29T06:00:08.377Z,9.23
2018-04-29T06:02:47.986Z,8.40
2018-04-29T06:05:31.852Z,7.53
2018-04-29T06:08:13.157Z,7.90
2018-04-29T06:10:53.305Z,8.00
2018-04-29T06:13:34.509Z,8.03
2018-04-29T06:16:16.977Z,7.17
2018-04-29T06:18:59.847Z,8.00
2018-04-29T06:21:41.369Z,8.40
2018-04-29T06:27:02.942Z,8.68
2018-04-29T06:35:01.291Z,8.40
2018-04-29T06:37:42.019Z,8.43
2018-04-29T06:40:22.609Z,7.93
2018-04-29T06:43:02.072Z,7.30
2018-04-29T06:45:44.030Z,7.77
2018-04-29T06:48:23.300Z,6.80
2018-04-29T06:51:02.375Z,7.57
2018-04-29T06:56:25.063Z,8.20
2018-04-29T06:59:07.088Z,7.90
2018-04-29T07:01:50.059Z,7.17
2018-04-29T07:04:30.346Z,7.07
2018-04-29T07:07:00.023Z,7.20
2018-04-29T07:09:29.554Z,7.60
2018-04-29T07:11:58.582Z,7.40
2018-04-29T07:14:28.986Z,7.50
2018-04-29T07:19:33.756Z,7.17
2018-04-29T07:22:02.826Z,7.10
2018-04-29T07:24:31.864Z,6.00
2018-04-29T07:27:00.923Z,16.70
2018-04-29T07:29:30.023Z,18.50
2018-04-29T07:31:59.106Z,7.00
2018-04-29T07:34:28.789Z,6.67
2018-04-29T07:36:57.859Z,7.10
2018-04-29T07:39:27.396Z,7.03
2018-04-29T07:41:56.447Z,6.20
2018-04-29T07:44:25.498Z,6.10
2018-04-29T07:46:56.485Z,7.97
2018-04-29T07:49:25.555Z,6.73
2018-04-29T07:51:54.598Z,7.00
2018-04-29T07:54:24.561Z,6.57
2018-04-29T07:56:54.583Z,6.47
2018-04-29T07:59:23.809Z,6.10
2018-04-29T08:04:28.794Z,6.30
2018-04-29T08:06:58.046Z,7.00
2018-04-29T08:09:27.183Z,7.05
2018-04-29T08:11:56.266Z,6.72
2018-04-29T08:14:25.309Z,5.90
2018-04-29T08:19:30.241Z,6.80
2018-04-29T08:22:01.035Z,6.43
2018-04-29T08:24:30.225Z,6.30
2018-04-29T08:27:00.180Z,5.83
2018-04-29T08:29:29.337Z,5.40
2018-04-29T08:31:59.312Z,5.27
2018-04-29T08:34:28.513Z,5.77
2018-04-29T08:39:34.007Z,6.15
2018-04-29T08:44:39.500Z,6.10
2018-04-29T08:47:08.709Z,6.18
2018-04-29T08:49:39.091Z,5.67
2018-04-29T08:52:08.140Z,5.37
2018-04-29T08:54:37.540Z,5.43
2018-04-29T08:57:07.598Z,4.20
2018-04-29T08:59:36.668Z,5.50
2018-04-29T09:02:05.812Z,5.60
2018-04-29T09:04:34.919Z,6.53
2018-04-29T09:07:04.093Z,7.20
2018-04-29T09:09:33.177Z,7.17
2018-04-29T09:12:02.341Z,6.90
2018-04-29T09:14:31.433Z,6.85
2018-04-29T09:17:01.254Z,5.60
2018-04-29T09:19:30.404Z,5.20
2018-04-29T09:21:59.948Z,5.30
2018-04-29T09:24:29.127Z,5.60
2018-04-29T09:29:34.049Z,4.72
2018-04-29T09:32:03.185Z,4.50
2018-04-29T09:34:32.369Z,5.63
2018-04-29T09:37:01.815Z,5.13
2018-04-29T09:39:31.082Z,4.93
2018-04-29T09:42:00.170Z,4.40
2018-04-29T09:44:29.792Z,4.35
2018-04-29T09:46:59.658Z,4.22
2018-04-29T09:52:05.348Z,4.07
2018-04-29T09:54:34.667Z,4.50
2018-04-29T10:02:17.059Z,4.60
2018-04-29T10:04:47.414Z,4.57
2018-04-29T10:09:52.251Z,4.50
2018-04-29T10:12:22.682Z,4.45
2018-04-29T10:14:51.785Z,4.57
2018-04-29T10:17:21.522Z,4.30
2018-04-29T10:19:50.582Z,4.37
2018-04-29T10:22:19.650Z,4.50
2018-04-29T10:24:49.580Z,4.50
2018-04-29T10:27:18.651Z,3.67
2018-04-29T10:29:48.124Z,4.80
2018-04-29T10:32:17.658Z,4.27
2018-04-29T10:34:46.706Z,4.73
2018-04-29T10:37:16.514Z,4.90
2018-04-29T10:39:45.548Z,4.30
2018-04-29T10:44:50.415Z,3.90
2018-04-29T10:47:19.482Z,4.03
2018-04-29T10:52:15.066Z,4.03
2018-04-29T10:54:44.152Z,4.00
2018-04-29T10:57:13.734Z,4.43
2018-04-29T10:59:43.248Z,3.93
2018-04-29T11:04:48.109Z,3.78
2018-04-29T11:07:17.354Z,4.10
2018-04-29T11:09:46.403Z,3.97
2018-04-29T11:12:15.453Z,4.07
2018-04-29T11:14:45.028Z,3.60
2018-04-29T11:17:14.622Z,4.10
2018-04-29T11:19:43.856Z,3.40
2018-04-29T11:22:13.435Z,3.90
2018-04-29T11:27:18.195Z,3.75
2018-04-29T11:32:22.959Z,3.72
2018-04-29T11:34:52.542Z,3.70
2018-04-29T11:37:21.578Z,3.37
2018-04-29T11:39:51.042Z,3.47
2018-04-29T11:42:20.166Z,4.20
2018-04-29T11:47:25.007Z,3.50
2018-04-29T11:52:30.067Z,3.78
2018-04-29T11:55:00.062Z,2.97
2018-04-29T11:57:29.842Z,3.57
2018-04-29T11:59:59.040Z,3.17
2018-04-29T12:02:28.442Z,4.35
2018-04-29T12:04:57.490Z,3.47
2018-04-29T12:07:26.816Z,3.23
2018-04-29T12:12:31.578Z,3.80
2018-04-29T12:15:00.686Z,3.50
2018-04-29T12:17:30.233Z,3.63
2018-04-29T12:19:59.674Z,3.00
2018-04-29T12:22:28.680Z,3.30
2018-04-29T12:24:58.626Z,3.20
2018-04-29T12:27:27.679Z,3.00
2018-04-29T12:29:56.735Z,3.70
2018-04-29T12:32:25.839Z,4.47
2018-04-29T12:34:55.479Z,3.70
2018-04-29T12:37:24.522Z,3.77
2018-04-29T12:39:53.892Z,3.50
2018-04-29T12:42:22.914Z,4.00
2018-04-29T12:44:51.986Z,4.00
2018-04-29T12:47:22.009Z,3.80
2018-04-29T12:49:52.182Z,3.87
2018-04-29T12:52:22.182Z,3.53
2018-04-29T12:54:51.690Z,3.40
2018-04-29T12:57:21.170Z,3.60
2018-04-29T12:59:50.193Z,4.00
2018-04-29T13:02:19.986Z,4.10
2018-04-29T13:04:50.030Z,3.58
2018-04-29T13:07:19.367Z,3.80
2018-04-29T13:09:49.203Z,3.65
2018-04-29T13:12:18.271Z,3.83
2018-04-29T13:14:47.375Z,4.20
2018-04-29T13:17:16.657Z,3.70
2018-04-29T13:19:45.994Z,3.70
2018-04-29T13:22:16.255Z,4.00
2018-04-29T13:24:45.731Z,3.93
2018-04-29T13:27:15.185Z,3.60
2018-04-29T13:29:44.247Z,4.13
2018-04-29T13:32:13.289Z,3.50
2018-04-29T13:34:42.461Z,3.97
2018-04-29T13:37:12.130Z,4.30
2018-04-29T13:39:41.376Z,4.17
2018-04-29T13:42:10.531Z,4.00
2018-04-29T13:44:39.594Z,4.03
2018-04-29T13:47:12.272Z,4.40
2018-04-29T13:49:42.178Z,3.97
2018-04-29T13:52:27.740Z,3.70
2018-04-29T13:55:11.067Z,4.20
2018-04-29T14:00:35.290Z,4.00
2018-04-29T14:03:10.465Z,4.03
2018-04-29T14:05:43.630Z,3.73
2018-04-29T14:08:16.503Z,3.80
2018-04-29T14:10:49.351Z,3.80
2018-04-29T14:13:21.728Z,4.23
2018-04-29T14:15:54.652Z,4.32
2018-04-29T14:18:23.687Z,3.97
2018-04-29T14:20:53.170Z,3.50
2018-04-29T14:23:22.213Z,3.65
2018-04-29T14:25:51.262Z,4.27
2018-04-29T14:28:20.603Z,4.30
2018-04-29T14:30:49.666Z,4.60
2018-04-29T14:33:19.246Z,4.60
2018-04-29T14:35:48.646Z,3.57
2018-04-29T14:38:17.685Z,4.10
2018-04-29T14:43:23.704Z,4.72
2018-04-29T14:48:29.344Z,4.15
2018-04-29T14:50:58.427Z,4.00
2018-04-29T14:53:27.477Z,3.70
2018-04-29T14:55:56.591Z,3.67
2018-04-29T14:58:26.399Z,4.20
2018-04-29T15:00:55.445Z,4.00
2018-04-29T15:03:24.508Z,4.33
2018-04-29T15:05:53.556Z,3.90
2018-04-29T15:08:22.636Z,4.23
2018-04-29T15:10:52.389Z,4.27
2018-04-29T15:15:57.332Z,7.85
2018-04-29T15:18:45.612Z,4.90
2018-04-29T15:21:14.732Z,4.30
2018-04-29T15:23:44.469Z,4.28
2018-04-29T15:26:13.565Z,4.27
2018-04-29T15:28:42.723Z,4.70
2018-04-29T15:31:12.351Z,4.87
2018-04-29T15:33:41.398Z,4.77
2018-04-29T15:36:10.755Z,4.17
2018-04-29T15:38:39.817Z,4.55
2018-04-29T15:41:08.892Z,5.37
2018-04-29T15:43:38.437Z,5.62
2018-04-29T15:46:07.480Z,3.80
2018-04-29T15:48:36.968Z,4.25
2018-04-29T15:51:06.035Z,4.73
2018-04-29T15:53:35.086Z,3.30
2018-04-29T15:56:04.135Z,4.22
2018-04-29T15:58:33.185Z,4.10
2018-04-29T16:01:02.634Z,5.07
2018-04-29T16:03:31.753Z,3.90
2018-04-29T16:06:00.992Z,4.57
2018-04-29T16:08:30.526Z,5.37
2018-04-29T16:10:59.577Z,3.97
2018-04-29T16:13:28.663Z,3.97
2018-04-29T16:15:58.528Z,4.30
2018-04-29T16:18:27.578Z,4.50
2018-04-29T16:20:57.612Z,4.20
2018-04-29T16:23:26.853Z,4.23
2018-04-29T16:25:55.916Z,3.70
2018-04-29T16:28:24.983Z,4.10
2018-04-29T16:30:54.476Z,3.87
2018-04-29T16:33:23.518Z,4.83
2018-04-29T16:38:28.426Z,4.30
2018-04-29T16:40:58.003Z,4.60
2018-04-29T16:43:27.045Z,4.03
2018-04-29T16:48:31.868Z,5.28
2018-04-29T16:51:01.208Z,6.47
2018-04-29T16:53:30.255Z,5.20
2018-04-29T16:56:00.177Z,4.57
2018-04-29T16:58:29.505Z,4.27
2018-04-29T17:00:58.566Z,4.10
2018-04-29T17:03:27.614Z,3.70
2018-04-29T17:05:57.238Z,4.20
2018-04-29T17:08:26.292Z,4.10
2018-04-29T17:11:40.198Z,3.60
2018-04-29T17:14:09.350Z,4.10
2018-04-29T17:16:38.648Z,3.80
2018-04-29T17:19:07.686Z,4.03
2018-04-29T17:21:36.757Z,3.23
2018-04-29T17:24:06.079Z,4.00
2018-04-29T17:26:35.122Z,3.50
2018-04-29T17:29:04.228Z,3.47
2018-04-29T17:31:33.414Z,3.40
2018-04-29T17:34:02.450Z,3.47
2018-04-29T17:36:31.511Z,3.63
2018-04-29T17:39:01.142Z,3.50
2018-04-29T17:44:06.638Z,3.65
2018-04-29T17:49:11.401Z,3.35
2018-04-29T17:54:16.200Z,3.80
2018-04-29T17:56:45.255Z,3.20
2018-04-29T17:59:14.451Z,3.00
2018-04-29T18:01:43.529Z,3.30
2018-04-29T18:04:12.582Z,3.27
2018-04-29T18:06:41.628Z,3.40
2018-04-29T18:09:10.754Z,3.77
2018-04-29T18:14:15.555Z,5.03
2018-04-29T18:16:44.683Z,3.80
2018-04-29T18:19:14.915Z,3.23
2018-04-29T18:21:43.966Z,2.97
2018-04-29T18:24:13.947Z,2.53
2018-04-29T18:26:43.147Z,2.90
2018-04-29T18:29:12.222Z,2.40
2018-04-29T18:31:41.300Z,3.20
2018-04-29T18:34:10.342Z,3.23
2018-04-29T18:36:39.574Z,3.10
2018-04-29T18:39:08.724Z,2.47
2018-04-29T18:41:37.822Z,2.67
2018-04-29T18:44:07.282Z,3.00
2018-04-29T18:46:36.437Z,2.70
2018-04-29T18:49:05.522Z,2.70
2018-04-29T18:51:34.599Z,2.90
2018-04-29T18:54:03.762Z,2.63
2018-04-29T18:56:33.699Z,2.80
2018-04-29T18:59:02.866Z,2.10
2018-04-29T19:01:32.087Z,2.60
2018-04-29T19:04:01.151Z,3.00
2018-04-29T19:09:08.240Z,3.00
2018-04-29T19:11:37.297Z,2.77
2018-04-29T19:14:06.377Z,2.50
2018-04-29T19:16:35.522Z,2.60
2018-04-29T19:19:04.589Z,2.30
2018-04-29T19:24:10.067Z,2.80
2018-04-29T19:26:39.031Z,3.50
2018-04-29T19:29:08.072Z,4.00
2018-04-29T19:31:37.339Z,3.37
2018-04-29T19:34:06.496Z,3.07
2018-04-29T19:39:11.359Z,3.37
2018-04-29T19:41:40.422Z,2.73
2018-04-29T19:44:09.785Z,2.90
2018-04-29T19:46:39.069Z,3.97
2018-04-29T19:49:08.126Z,3.47
2018-04-29T19:51:37.173Z,3.83
2018-04-29T19:54:06.242Z,3.27
2018-04-29T19:56:35.348Z,3.80
2018-04-29T19:59:04.652Z,3.92
2018-04-29T20:01:34.666Z,4.20
2018-04-29T20:04:03.756Z,4.10
2018-04-29T20:06:33.104Z,3.23
2018-04-29T20:09:02.170Z,4.03
2018-04-29T20:11:32.164Z,4.15
2018-04-29T20:14:01.211Z,3.63
2018-04-29T20:16:31.286Z,3.90
2018-04-29T20:19:00.572Z,4.07
2018-04-29T20:21:30.709Z,3.40
2018-04-29T20:23:59.770Z,3.80
2018-04-29T20:26:28.890Z,3.80
2018-04-29T20:28:57.945Z,4.17
2018-04-29T20:34:10.468Z,3.72
2018-04-29T20:39:15.254Z,3.75
2018-04-29T20:41:44.351Z,4.40
2018-04-29T20:44:13.485Z,3.10
2018-04-29T20:46:42.662Z,3.27
2018-04-29T20:49:11.694Z,2.93
2018-04-29T20:51:40.749Z,3.60
2018-04-29T20:54:09.907Z,3.60
2018-04-29T20:56:38.971Z,3.27
2018-04-29T20:59:09.995Z,2.93
2018-04-29T21:01:39.050Z,3.37
2018-04-29T21:04:08.242Z,4.27
2018-04-29T21:06:38.619Z,3.43
2018-04-29T21:09:07.655Z,3.80
2018-04-29T21:11:36.711Z,3.90
2018-04-29T21:14:05.922Z,3.93
2018-04-29T21:16:34.984Z,3.60
2018-04-29T21:19:04.052Z,3.83
2018-04-29T21:21:33.199Z,3.60
2018-04-29T21:26:38.045Z,3.67
2018-04-29T21:29:07.077Z,5.03
2018-04-29T21:31:36.226Z,3.07
2018-04-29T21:34:05.345Z,3.70
2018-04-29T21:36:34.405Z,3.70
2018-04-29T21:39:03.459Z,3.37
2018-04-29T21:41:32.606Z,3.60
2018-04-29T21:44:01.711Z,2.90
2018-04-29T21:46:30.993Z,3.67
2018-04-29T21:49:01.039Z,3.47
2018-04-29T21:51:30.099Z,3.23
2018-04-29T21:54:00.162Z,2.90
2018-04-29T21:56:43.571Z,3.20
2018-04-29T21:59:14.597Z,2.83
2018-04-29T22:01:43.823Z,3.10
2018-04-29T22:04:12.899Z,2.90
2018-04-29T22:06:41.902Z,3.03
2018-04-29T22:09:11.186Z,3.17
2018-04-29T22:11:40.261Z,3.50
2018-04-29T22:16:45.103Z,3.40
2018-04-29T22:19:14.170Z,3.90
2018-04-29T22:21:43.274Z,3.20
2018-04-29T22:24:12.387Z,2.67
2018-04-29T22:26:41.623Z,3.60
2018-04-29T22:29:10.662Z,2.40
2018-04-29T22:31:39.754Z,3.47
2018-04-29T22:34:08.806Z,3.17
2018-04-29T22:36:37.842Z,3.03
2018-04-29T22:39:07.918Z,3.20
2018-04-29T22:41:36.965Z,3.10
2018-04-29T22:44:07.149Z,3.07
2018-04-29T22:46:36.181Z,2.87
2018-04-29T22:49:05.469Z,2.90
2018-04-29T22:51:34.640Z,2.90
2018-04-29T22:56:39.409Z,2.60
2018-04-29T22:59:08.477Z,2.90
2018-04-29T23:01:37.548Z,2.80
2018-04-29T23:04:06.744Z,2.73
2018-04-29T23:06:35.792Z,2.90
2018-04-29T23:09:05.499Z,2.70
2018-04-29T23:11:34.563Z,3.10
2018-04-29T23:16:39.390Z,2.80
2018-04-29T23:19:08.441Z,2.33
2018-04-29T23:21:37.490Z,2.93
2018-04-29T23:24:06.655Z,2.57
2018-04-29T23:26:35.767Z,2.57
2018-04-29T23:31:40.670Z,2.30
2018-04-29T23:34:09.749Z,2.90
2018-04-29T23:36:39.090Z,2.57
2018-04-29T23:39:08.164Z,2.60
2018-04-29T23:41:37.217Z,2.27
2018-04-29T23:44:06.276Z,2.40
2018-04-29T23:46:35.331Z,2.80
2018-04-29T23:49:04.407Z,2.33
2018-04-29T23:51:33.538Z,2.33
2018-04-29T23:54:02.587Z,2.20
2018-04-29T23:56:31.686Z,2.93
